Welkom op Weerpagina Nieuwendam !!





My webcam Meer informatie My webcam


Onweer radar Meer informatie blitzortung!


Regen radar  rain snow radar


Bezoek onze andere website:

Template documentation
and downloads

And another site



METAR rapporten vliegvelden

   
EHAM - Amsterdam/Schiph, Netherlands
Afstand tot: ONO 18 km
Gewijzigd: 17-12-2018 17:25
Licht bewolkt  
Licht bewolkt  
   Wind: WZW 4.1 m/s
Wind: WZW 4.1 m/s
Temperatuur: 7°C
Voelt als: 4°C
Dauwpunt: 6°C
Vochtigheid: 93%
Barometer: 1019 hPa
Bewolking: Few Clouds
Zicht: meer dan 10 km
Bewolking: Licht bewolkt 1500 ft
EHAM 171625Z 24008KT 9999 FEW015 07/06 Q1019 NOSIG
EHRD - Rotterdam Airpor, Netherlands
Afstand tot: ZZW 32 km
Gewijzigd: 17-12-2018 17:25
Gedeeltelijk bewolkt  
Gedeeltelijk bewolkt  
   Wind: WZW 4.6 m/s
Wind: WZW 4.6 m/s
Temperatuur: 7°C
Voelt als: 4°C
Dauwpunt: 5°C
Vochtigheid: 87%
Barometer: 1020 hPa
Bewolking: Partly Cloudy
Zicht: meer dan 10 km
Bewolking: Gedeeltelijk bewolkt ft
EHRD 171625Z AUTO 24009KT 9999 NSC 07/05 Q1020 NOSIG
EHSC - Goeree Le Sea, Netherlands
Afstand tot: WZW 70 km
Gewijzigd: 17-12-2018 17:25
  
  
   Wind: WZW 6.7 m/s
Wind: WZW 6.7 m/s
Temperatuur: 9°C
Voelt als: 6°C
Dauwpunt: 7°C
Vochtigheid: 87%
Barometer: 1020 hPa
Zicht: meer dan 10 km
EHSC 171625Z AUTO 24013KT 9999 ///////// 09/07 Q1020 W08/H11
EHKD - De Kooy (navy), Netherlands
Afstand tot: N 77 km
Gewijzigd: 17-12-2018 17:36
Bewolking  
Bewolking  
   Wind: WZW 6.2 m/s
Wind: WZW 6.2 m/s
Temperatuur: 8°C
Voelt als: 4°C
Dauwpunt: 5°C
Vochtigheid: 82%
Barometer: 1018 hPa
Bewolking: Overcast
Zicht: meer dan 10 km
Bewolking: Gedeeltelijk bewolkt 2400 ft,
Grotendeels bewolkt 2800 ft,
Bewolking 3100 ft
EHKD 171636Z AUTO 25012KT 9999 SCT024 BKN028 OVC031 08/05 Q1018 WHT 24012KT 9999 FEW015 BKN030
EHGR - Gilze-Rijen Rnla, Netherlands
Afstand tot: ZZO 78 km
Gewijzigd: 17-12-2018 17:40
Gedeeltelijk bewolkt  
Gedeeltelijk bewolkt  
   Wind: ZZW 2.1 m/s
Wind: ZZW 2.1 m/s
Temperatuur: 4°C
Voelt als: 2°C
Bewolking: Partly Cloudy
Zicht: meer dan 10 km
Bewolking: Gedeeltelijk bewolkt 1900 ft,
Gedeeltelijk bewolkt 32000 ft
EHGR 171640Z AUTO 20004KT 160V230 9999 SCT019/// SCT320/// 04/
EHQE - Hoorn-A Sea, Netherlands
Afstand tot: NNW 81 km
Gewijzigd: 17-12-2018 17:25
Gedeeltelijk bewolkt  
Gedeeltelijk bewolkt  
   Wind: Westen 9.3 m/s
Wind: Westen 9.3 m/s
Temperatuur: 9°C
Voelt als: 5°C
Dauwpunt: 5°C
Vochtigheid: 76%
Barometer: 1018 hPa
Bewolking: Partly Cloudy
Zicht: meer dan 10 km
Bewolking: Licht bewolkt 1400 ft,
Gedeeltelijk bewolkt 1600 ft
EHQE 171625Z AUTO 27018KT 9999 FEW014 SCT016 09/05 Q1018 W///H///
EHPG - P11-B Sea, Netherlands
Afstand tot: W 84 km
Gewijzigd: 17-12-2018 17:25
Licht bewolkt  
Licht bewolkt  
   Wind: WZW 8.7 m/s
Wind: WZW 8.7 m/s
Temperatuur: 9°C
Voelt als: 5°C
Dauwpunt: 6°C
Vochtigheid: 82%
Barometer: 1019 hPa
Bewolking: Few Clouds
Zicht: meer dan 10 km
Bewolking: Licht bewolkt 1500 ft
EHPG 171625Z AUTO 25017KT 220V290 9999 FEW015 09/06 Q1019 W///H///
EHWO - Woensdrecht Rnla, Netherlands
Afstand tot: Z 89 km
Gewijzigd: 17-12-2018 17:25
Bewolking  
Bewolking  
   Wind: ZW 3.6 m/s
Wind: ZW 3.6 m/s
Temperatuur: 7°C
Voelt als: 4°C
Dauwpunt: 5°C
Vochtigheid: 87%
Barometer: 1021 hPa
Bewolking: Overcast
Zicht: meer dan 10 km
Bewolking: Bewolking 34000 ft
EHWO 171625Z AUTO 22007KT 9999 OVC340 07/05 Q1021 BLU
 

Script ontwikkeld door  Saratoga-weather.org Aangepast voor de template door  Weerstation Leuven

U vindt ons ook hier:

UK Metoffice

European Weather Network

WeatherCloud

Weather Underground

Benelux Weer Netwerk

AWEKAS

Citizen Weather Observer Program (CWOP)

Apparatuur in gebruik:

Weerstation
Davis VP2

Weerprogramma
Weather Display

Weercomputer
My Computer

Davis VP2

Weather Display

My Computer